sensor_id;sensor_type;location;lat;lon;timestamp;P1;durP1;ratioP1;P2;durP2;ratioP2
13263;SDS011;6700;51.988;7.646;2023-04-16T00:00:38;67.17;;;32.30;;
13263;SDS011;6700;51.988;7.646;2023-04-16T00:03:05;60.50;;;33.07;;
13263;SDS011;6700;51.988;7.646;2023-04-16T00:05:32;60.63;;;32.07;;
13263;SDS011;6700;51.988;7.646;2023-04-16T00:07:59;56.97;;;31.13;;
13263;SDS011;6700;51.988;7.646;2023-04-16T00:10:26;53.67;;;31.50;;
13263;SDS011;6700;51.988;7.646;2023-04-16T00:12:53;65.87;;;30.57;;
13263;SDS011;6700;51.988;7.646;2023-04-16T00:15:21;66.07;;;30.83;;
13263;SDS011;6700;51.988;7.646;2023-04-16T00:17:48;59.00;;;31.60;;
13263;SDS011;6700;51.988;7.646;2023-04-16T00:20:15;55.03;;;32.27;;
13263;SDS011;6700;51.988;7.646;2023-04-16T00:22:42;67.30;;;31.93;;
13263;SDS011;6700;51.988;7.646;2023-04-16T00:25:09;60.43;;;31.33;;
13263;SDS011;6700;51.988;7.646;2023-04-16T00:27:36;58.63;;;32.03;;
13263;SDS011;6700;51.988;7.646;2023-04-16T00:30:03;61.90;;;33.13;;
13263;SDS011;6700;51.988;7.646;2023-04-16T00:32:31;57.97;;;32.57;;
13263;SDS011;6700;51.988;7.646;2023-04-16T00:34:58;62.80;;;33.47;;
13263;SDS011;6700;51.988;7.646;2023-04-16T00:37:25;60.33;;;31.53;;
13263;SDS011;6700;51.988;7.646;2023-04-16T00:39:53;68.47;;;32.90;;
13263;SDS011;6700;51.988;7.646;2023-04-16T00:42:20;63.37;;;33.20;;
13263;SDS011;6700;51.988;7.646;2023-04-16T00:44:47;67.90;;;32.97;;
13263;SDS011;6700;51.988;7.646;2023-04-16T00:47:14;61.20;;;32.30;;
13263;SDS011;6700;51.988;7.646;2023-04-16T00:49:42;59.57;;;32.13;;
13263;SDS011;6700;51.988;7.646;2023-04-16T00:52:10;64.57;;;33.17;;
13263;SDS011;6700;51.988;7.646;2023-04-16T00:54:37;65.10;;;33.67;;
13263;SDS011;6700;51.988;7.646;2023-04-16T00:57:04;63.83;;;33.60;;
13263;SDS011;6700;51.988;7.646;2023-04-16T00:59:32;66.77;;;33.83;;
13263;SDS011;6700;51.988;7.646;2023-04-16T01:01:59;63.13;;;33.33;;
13263;SDS011;6700;51.988;7.646;2023-04-16T01:04:27;64.43;;;33.70;;
13263;SDS011;6700;51.988;7.646;2023-04-16T01:06:56;66.97;;;33.60;;
13263;SDS011;6700;51.988;7.646;2023-04-16T01:09:23;64.67;;;35.67;;
13263;SDS011;6700;51.988;7.646;2023-04-16T01:11:50;58.07;;;36.00;;
13263;SDS011;6700;51.988;7.646;2023-04-16T01:14:17;62.83;;;34.17;;
13263;SDS011;6700;51.988;7.646;2023-04-16T01:16:45;62.87;;;37.50;;
13263;SDS011;6700;51.988;7.646;2023-04-16T01:19:12;65.00;;;34.93;;
13263;SDS011;6700;51.988;7.646;2023-04-16T01:21:39;63.40;;;34.57;;
13263;SDS011;6700;51.988;7.646;2023-04-16T01:24:06;59.50;;;34.97;;
13263;SDS011;6700;51.988;7.646;2023-04-16T01:26:33;62.17;;;34.50;;
13263;SDS011;6700;51.988;7.646;2023-04-16T01:29:01;59.40;;;34.53;;
13263;SDS011;6700;51.988;7.646;2023-04-16T01:31:28;58.47;;;33.30;;
13263;SDS011;6700;51.988;7.646;2023-04-16T01:33:55;64.47;;;36.50;;
13263;SDS011;6700;51.988;7.646;2023-04-16T01:36:23;54.03;;;33.97;;
13263;SDS011;6700;51.988;7.646;2023-04-16T01:38:52;54.10;;;34.50;;
13263;SDS011;6700;51.988;7.646;2023-04-16T01:41:19;55.47;;;32.77;;
13263;SDS011;6700;51.988;7.646;2023-04-16T01:43:46;57.03;;;33.40;;
13263;SDS011;6700;51.988;7.646;2023-04-16T01:46:19;60.37;;;35.37;;
13263;SDS011;6700;51.988;7.646;2023-04-16T01:48:49;56.60;;;34.60;;
13263;SDS011;6700;51.988;7.646;2023-04-16T01:51:20;58.00;;;36.10;;
13263;SDS011;6700;51.988;7.646;2023-04-16T01:53:47;56.20;;;35.50;;
13263;SDS011;6700;51.988;7.646;2023-04-16T01:56:15;63.77;;;37.03;;
13263;SDS011;6700;51.988;7.646;2023-04-16T01:58:42;54.23;;;37.37;;
13263;SDS011;6700;51.988;7.646;2023-04-16T02:01:11;54.73;;;36.37;;
13263;SDS011;6700;51.988;7.646;2023-04-16T02:03:38;56.83;;;36.60;;
13263;SDS011;6700;51.988;7.646;2023-04-16T02:06:06;57.80;;;37.03;;
13263;SDS011;6700;51.988;7.646;2023-04-16T02:08:33;57.93;;;35.87;;
13263;SDS011;6700;51.988;7.646;2023-04-16T02:11:00;63.50;;;38.47;;
13263;SDS011;6700;51.988;7.646;2023-04-16T02:13:27;59.87;;;36.13;;
13263;SDS011;6700;51.988;7.646;2023-04-16T02:15:54;62.03;;;36.47;;
13263;SDS011;6700;51.988;7.646;2023-04-16T02:18:21;62.53;;;38.83;;
13263;SDS011;6700;51.988;7.646;2023-04-16T02:20:49;61.97;;;37.83;;
13263;SDS011;6700;51.988;7.646;2023-04-16T02:23:16;60.50;;;39.33;;
13263;SDS011;6700;51.988;7.646;2023-04-16T02:25:44;62.87;;;37.00;;
13263;SDS011;6700;51.988;7.646;2023-04-16T02:28:12;61.37;;;39.20;;
13263;SDS011;6700;51.988;7.646;2023-04-16T02:30:39;62.37;;;39.87;;
13263;SDS011;6700;51.988;7.646;2023-04-16T02:33:08;62.87;;;37.87;;
13263;SDS011;6700;51.988;7.646;2023-04-16T02:35:36;62.80;;;38.17;;
13263;SDS011;6700;51.988;7.646;2023-04-16T02:38:03;60.33;;;38.20;;
13263;SDS011;6700;51.988;7.646;2023-04-16T02:40:30;58.30;;;39.37;;
13263;SDS011;6700;51.988;7.646;2023-04-16T02:42:58;54.90;;;36.43;;
13263;SDS011;6700;51.988;7.646;2023-04-16T02:45:25;62.63;;;38.00;;
13263;SDS011;6700;51.988;7.646;2023-04-16T02:47:52;57.77;;;35.40;;
13263;SDS011;6700;51.988;7.646;2023-04-16T02:50:19;61.60;;;38.17;;
13263;SDS011;6700;51.988;7.646;2023-04-16T02:52:46;51.33;;;37.20;;
13263;SDS011;6700;51.988;7.646;2023-04-16T02:55:14;57.70;;;37.20;;
13263;SDS011;6700;51.988;7.646;2023-04-16T02:57:41;56.83;;;38.37;;
13263;SDS011;6700;51.988;7.646;2023-04-16T03:00:08;58.17;;;36.53;;
13263;SDS011;6700;51.988;7.646;2023-04-16T03:02:35;55.73;;;38.60;;
13263;SDS011;6700;51.988;7.646;2023-04-16T03:05:02;51.20;;;37.63;;
13263;SDS011;6700;51.988;7.646;2023-04-16T03:07:30;58.07;;;37.40;;
13263;SDS011;6700;51.988;7.646;2023-04-16T03:09:57;51.30;;;37.33;;
13263;SDS011;6700;51.988;7.646;2023-04-16T03:12:24;52.93;;;37.07;;
13263;SDS011;6700;51.988;7.646;2023-04-16T03:14:51;53.87;;;37.77;;
13263;SDS011;6700;51.988;7.646;2023-04-16T03:17:18;55.03;;;37.27;;
13263;SDS011;6700;51.988;7.646;2023-04-16T03:19:45;55.77;;;36.13;;
13263;SDS011;6700;51.988;7.646;2023-04-16T03:22:12;51.17;;;37.07;;
13263;SDS011;6700;51.988;7.646;2023-04-16T03:24:39;50.43;;;36.57;;
13263;SDS011;6700;51.988;7.646;2023-04-16T03:27:06;48.37;;;36.00;;
13263;SDS011;6700;51.988;7.646;2023-04-16T03:29:36;62.23;;;37.30;;
13263;SDS011;6700;51.988;7.646;2023-04-16T03:32:04;52.50;;;35.43;;
13263;SDS011;6700;51.988;7.646;2023-04-16T03:34:31;52.53;;;37.00;;
13263;SDS011;6700;51.988;7.646;2023-04-16T03:36:58;48.97;;;36.53;;
13263;SDS011;6700;51.988;7.646;2023-04-16T03:39:26;49.07;;;36.90;;
13263;SDS011;6700;51.988;7.646;2023-04-16T03:41:53;52.73;;;37.40;;
13263;SDS011;6700;51.988;7.646;2023-04-16T03:44:20;49.83;;;35.87;;
13263;SDS011;6700;51.988;7.646;2023-04-16T03:46:47;45.00;;;35.33;;
13263;SDS011;6700;51.988;7.646;2023-04-16T03:49:14;44.77;;;35.10;;
13263;SDS011;6700;51.988;7.646;2023-04-16T03:51:41;47.80;;;36.33;;
13263;SDS011;6700;51.988;7.646;2023-04-16T03:54:08;47.97;;;37.00;;
13263;SDS011;6700;51.988;7.646;2023-04-16T03:56:35;47.80;;;36.63;;
13263;SDS011;6700;51.988;7.646;2023-04-16T03:59:02;53.50;;;36.50;;
13263;SDS011;6700;51.988;7.646;2023-04-16T04:01:29;48.37;;;34.60;;
13263;SDS011;6700;51.988;7.646;2023-04-16T04:03:57;52.53;;;34.67;;
13263;SDS011;6700;51.988;7.646;2023-04-16T04:06:24;47.47;;;34.80;;
13263;SDS011;6700;51.988;7.646;2023-04-16T04:08:51;45.60;;;34.63;;
13263;SDS011;6700;51.988;7.646;2023-04-16T04:11:18;47.50;;;33.13;;
13263;SDS011;6700;51.988;7.646;2023-04-16T04:13:45;41.43;;;31.80;;
13263;SDS011;6700;51.988;7.646;2023-04-16T04:16:12;43.00;;;33.47;;
13263;SDS011;6700;51.988;7.646;2023-04-16T04:18:40;41.07;;;33.77;;
13263;SDS011;6700;51.988;7.646;2023-04-16T04:21:09;44.00;;;34.17;;
13263;SDS011;6700;51.988;7.646;2023-04-16T04:23:36;41.67;;;33.33;;
13263;SDS011;6700;51.988;7.646;2023-04-16T04:26:04;45.03;;;34.43;;
13263;SDS011;6700;51.988;7.646;2023-04-16T04:28:33;42.60;;;32.47;;
13263;SDS011;6700;51.988;7.646;2023-04-16T04:31:00;45.07;;;34.40;;
13263;SDS011;6700;51.988;7.646;2023-04-16T04:33:27;44.10;;;32.47;;
13263;SDS011;6700;51.988;7.646;2023-04-16T04:35:54;47.87;;;34.87;;
13263;SDS011;6700;51.988;7.646;2023-04-16T04:38:22;47.00;;;33.27;;
13263;SDS011;6700;51.988;7.646;2023-04-16T04:40:50;44.87;;;34.43;;
13263;SDS011;6700;51.988;7.646;2023-04-16T04:43:21;42.67;;;33.70;;
13263;SDS011;6700;51.988;7.646;2023-04-16T04:45:48;46.93;;;34.50;;
13263;SDS011;6700;51.988;7.646;2023-04-16T04:48:15;40.83;;;34.53;;
13263;SDS011;6700;51.988;7.646;2023-04-16T04:50:43;39.63;;;32.10;;
13263;SDS011;6700;51.988;7.646;2023-04-16T04:53:11;45.27;;;32.97;;
13263;SDS011;6700;51.988;7.646;2023-04-16T04:55:39;41.63;;;33.17;;
13263;SDS011;6700;51.988;7.646;2023-04-16T04:58:07;39.23;;;32.77;;
13263;SDS011;6700;51.988;7.646;2023-04-16T05:00:34;39.37;;;32.57;;
13263;SDS011;6700;51.988;7.646;2023-04-16T05:03:05;51.63;;;35.00;;
13263;SDS011;6700;51.988;7.646;2023-04-16T05:05:32;42.57;;;32.57;;
13263;SDS011;6700;51.988;7.646;2023-04-16T05:08:00;41.30;;;33.73;;
13263;SDS011;6700;51.988;7.646;2023-04-16T05:10:27;41.23;;;33.07;;
13263;SDS011;6700;51.988;7.646;2023-04-16T05:12:54;41.50;;;33.70;;
13263;SDS011;6700;51.988;7.646;2023-04-16T05:15:24;39.93;;;32.57;;
13263;SDS011;6700;51.988;7.646;2023-04-16T05:17:51;39.43;;;33.83;;
13263;SDS011;6700;51.988;7.646;2023-04-16T05:20:18;41.63;;;33.97;;
13263;SDS011;6700;51.988;7.646;2023-04-16T05:22:45;43.80;;;33.10;;
13263;SDS011;6700;51.988;7.646;2023-04-16T05:25:13;41.07;;;33.00;;
13263;SDS011;6700;51.988;7.646;2023-04-16T05:27:40;38.40;;;32.63;;
13263;SDS011;6700;51.988;7.646;2023-04-16T05:30:07;39.23;;;33.93;;
13263;SDS011;6700;51.988;7.646;2023-04-16T05:32:34;40.93;;;33.07;;
13263;SDS011;6700;51.988;7.646;2023-04-16T05:35:01;46.03;;;32.30;;
13263;SDS011;6700;51.988;7.646;2023-04-16T05:37:29;39.63;;;31.23;;
13263;SDS011;6700;51.988;7.646;2023-04-16T05:39:56;40.97;;;33.30;;
13263;SDS011;6700;51.988;7.646;2023-04-16T05:42:23;38.87;;;32.97;;
13263;SDS011;6700;51.988;7.646;2023-04-16T05:44:50;39.23;;;32.30;;
13263;SDS011;6700;51.988;7.646;2023-04-16T05:47:17;46.53;;;33.57;;
13263;SDS011;6700;51.988;7.646;2023-04-16T05:49:44;43.23;;;32.17;;
13263;SDS011;6700;51.988;7.646;2023-04-16T05:52:11;40.10;;;33.33;;
13263;SDS011;6700;51.988;7.646;2023-04-16T05:54:39;43.87;;;33.60;;
13263;SDS011;6700;51.988;7.646;2023-04-16T05:57:06;40.03;;;33.33;;
13263;SDS011;6700;51.988;7.646;2023-04-16T05:59:33;45.50;;;34.80;;
13263;SDS011;6700;51.988;7.646;2023-04-16T06:02:00;50.50;;;38.03;;
13263;SDS011;6700;51.988;7.646;2023-04-16T06:04:27;45.23;;;36.67;;
13263;SDS011;6700;51.988;7.646;2023-04-16T06:06:56;46.40;;;36.27;;
13263;SDS011;6700;51.988;7.646;2023-04-16T06:09:23;45.13;;;35.80;;
13263;SDS011;6700;51.988;7.646;2023-04-16T06:11:50;43.97;;;35.27;;
13263;SDS011;6700;51.988;7.646;2023-04-16T06:14:17;40.83;;;33.50;;
13263;SDS011;6700;51.988;7.646;2023-04-16T06:16:44;44.60;;;35.90;;
13263;SDS011;6700;51.988;7.646;2023-04-16T06:19:11;45.83;;;36.23;;
13263;SDS011;6700;51.988;7.646;2023-04-16T06:21:38;44.43;;;35.57;;
13263;SDS011;6700;51.988;7.646;2023-04-16T06:24:06;42.87;;;34.67;;
13263;SDS011;6700;51.988;7.646;2023-04-16T06:26:33;37.57;;;33.43;;
13263;SDS011;6700;51.988;7.646;2023-04-16T06:29:00;44.93;;;35.73;;
13263;SDS011;6700;51.988;7.646;2023-04-16T06:31:27;41.63;;;35.10;;
13263;SDS011;6700;51.988;7.646;2023-04-16T06:33:54;39.37;;;33.03;;
13263;SDS011;6700;51.988;7.646;2023-04-16T06:36:21;39.60;;;32.87;;
13263;SDS011;6700;51.988;7.646;2023-04-16T06:38:48;42.33;;;34.03;;
13263;SDS011;6700;51.988;7.646;2023-04-16T06:41:15;44.72;;;40.10;;
13263;SDS011;6700;51.988;7.646;2023-04-16T06:43:43;43.00;;;36.17;;
13263;SDS011;6700;51.988;7.646;2023-04-16T06:46:10;38.60;;;33.63;;
13263;SDS011;6700;51.988;7.646;2023-04-16T06:48:37;41.37;;;32.73;;
13263;SDS011;6700;51.988;7.646;2023-04-16T06:51:04;43.13;;;32.73;;
13263;SDS011;6700;51.988;7.646;2023-04-16T06:53:31;42.20;;;34.07;;
13263;SDS011;6700;51.988;7.646;2023-04-16T06:55:58;34.40;;;30.73;;
13263;SDS011;6700;51.988;7.646;2023-04-16T06:58:25;40.53;;;32.53;;
13263;SDS011;6700;51.988;7.646;2023-04-16T07:00:53;40.33;;;33.43;;
13263;SDS011;6700;51.988;7.646;2023-04-16T07:03:20;39.17;;;32.73;;
13263;SDS011;6700;51.988;7.646;2023-04-16T07:05:47;39.47;;;31.47;;
13263;SDS011;6700;51.988;7.646;2023-04-16T07:08:15;37.80;;;30.93;;
13263;SDS011;6700;51.988;7.646;2023-04-16T07:10:42;38.20;;;33.13;;
13263;SDS011;6700;51.988;7.646;2023-04-16T07:13:09;34.07;;;30.37;;
13263;SDS011;6700;51.988;7.646;2023-04-16T07:15:36;34.00;;;28.63;;
13263;SDS011;6700;51.988;7.646;2023-04-16T07:18:03;37.93;;;31.43;;
13263;SDS011;6700;51.988;7.646;2023-04-16T07:20:30;36.70;;;29.87;;
13263;SDS011;6700;51.988;7.646;2023-04-16T07:22:57;38.80;;;33.20;;
13263;SDS011;6700;51.988;7.646;2023-04-16T07:25:24;35.23;;;30.77;;
13263;SDS011;6700;51.988;7.646;2023-04-16T07:27:52;35.73;;;31.60;;
13263;SDS011;6700;51.988;7.646;2023-04-16T07:30:19;34.37;;;30.60;;
13263;SDS011;6700;51.988;7.646;2023-04-16T07:32:46;35.07;;;31.03;;
13263;SDS011;6700;51.988;7.646;2023-04-16T07:35:13;37.23;;;30.37;;
13263;SDS011;6700;51.988;7.646;2023-04-16T07:37:40;34.73;;;30.80;;
13263;SDS011;6700;51.988;7.646;2023-04-16T07:40:08;33.73;;;29.90;;
13263;SDS011;6700;51.988;7.646;2023-04-16T07:42:35;36.23;;;30.43;;
13263;SDS011;6700;51.988;7.646;2023-04-16T07:45:02;32.20;;;28.70;;
13263;SDS011;6700;51.988;7.646;2023-04-16T07:47:29;36.80;;;29.97;;
13263;SDS011;6700;51.988;7.646;2023-04-16T07:49:57;34.57;;;30.77;;
13263;SDS011;6700;51.988;7.646;2023-04-16T07:52:24;36.07;;;29.87;;
13263;SDS011;6700;51.988;7.646;2023-04-16T07:54:52;37.73;;;31.33;;
13263;SDS011;6700;51.988;7.646;2023-04-16T07:57:19;35.00;;;30.47;;
13263;SDS011;6700;51.988;7.646;2023-04-16T07:59:46;33.33;;;29.70;;
13263;SDS011;6700;51.988;7.646;2023-04-16T08:02:14;34.77;;;30.30;;
13263;SDS011;6700;51.988;7.646;2023-04-16T08:04:42;31.77;;;28.30;;
13263;SDS011;6700;51.988;7.646;2023-04-16T08:07:10;35.83;;;30.37;;
13263;SDS011;6700;51.988;7.646;2023-04-16T08:09:45;33.43;;;29.40;;
13263;SDS011;6700;51.988;7.646;2023-04-16T08:12:12;31.43;;;27.97;;
13263;SDS011;6700;51.988;7.646;2023-04-16T08:14:39;35.33;;;28.37;;
13263;SDS011;6700;51.988;7.646;2023-04-16T08:17:06;31.50;;;26.97;;
13263;SDS011;6700;51.988;7.646;2023-04-16T08:19:34;32.17;;;28.37;;
13263;SDS011;6700;51.988;7.646;2023-04-16T08:22:01;31.17;;;27.33;;
13263;SDS011;6700;51.988;7.646;2023-04-16T08:24:28;32.23;;;28.43;;
13263;SDS011;6700;51.988;7.646;2023-04-16T08:26:55;31.23;;;27.90;;
13263;SDS011;6700;51.988;7.646;2023-04-16T08:29:40;30.77;;;27.20;;
13263;SDS011;6700;51.988;7.646;2023-04-16T08:32:07;30.80;;;27.57;;
13263;SDS011;6700;51.988;7.646;2023-04-16T08:34:37;29.17;;;25.90;;
13263;SDS011;6700;51.988;7.646;2023-04-16T08:37:04;34.40;;;27.07;;
13263;SDS011;6700;51.988;7.646;2023-04-16T08:39:31;30.60;;;27.23;;
13263;SDS011;6700;51.988;7.646;2023-04-16T08:41:58;30.90;;;27.03;;
13263;SDS011;6700;51.988;7.646;2023-04-16T08:44:32;32.17;;;27.03;;
13263;SDS011;6700;51.988;7.646;2023-04-16T08:47:00;28.40;;;25.20;;
13263;SDS011;6700;51.988;7.646;2023-04-16T08:49:27;30.40;;;26.70;;
13263;SDS011;6700;51.988;7.646;2023-04-16T08:51:55;31.10;;;26.30;;
13263;SDS011;6700;51.988;7.646;2023-04-16T08:56:49;29.53;;;25.37;;
13263;SDS011;6700;51.988;7.646;2023-04-16T08:59:17;28.23;;;25.27;;
13263;SDS011;6700;51.988;7.646;2023-04-16T09:01:44;27.60;;;24.93;;
13263;SDS011;6700;51.988;7.646;2023-04-16T09:04:14;27.20;;;24.17;;
13263;SDS011;6700;51.988;7.646;2023-04-16T09:06:41;26.40;;;23.60;;
13263;SDS011;6700;51.988;7.646;2023-04-16T09:09:09;26.40;;;23.70;;
13263;SDS011;6700;51.988;7.646;2023-04-16T09:11:37;26.03;;;23.37;;
13263;SDS011;6700;51.988;7.646;2023-04-16T09:14:06;26.40;;;23.60;;
13263;SDS011;6700;51.988;7.646;2023-04-16T09:16:35;25.90;;;23.20;;
13263;SDS011;6700;51.988;7.646;2023-04-16T09:19:02;27.03;;;24.17;;
13263;SDS011;6700;51.988;7.646;2023-04-16T09:21:30;25.40;;;22.80;;
13263;SDS011;6700;51.988;7.646;2023-04-16T09:23:58;24.03;;;21.53;;
13263;SDS011;6700;51.988;7.646;2023-04-16T09:26:26;22.97;;;20.47;;
13263;SDS011;6700;51.988;7.646;2023-04-16T09:28:53;25.73;;;23.13;;
13263;SDS011;6700;51.988;7.646;2023-04-16T09:31:20;23.83;;;21.40;;
13263;SDS011;6700;51.988;7.646;2023-04-16T09:34:04;23.30;;;20.93;;
13263;SDS011;6700;51.988;7.646;2023-04-16T09:36:31;21.93;;;19.83;;
13263;SDS011;6700;51.988;7.646;2023-04-16T09:39:01;22.57;;;20.37;;
13263;SDS011;6700;51.988;7.646;2023-04-16T09:41:29;21.30;;;19.13;;
13263;SDS011;6700;51.988;7.646;2023-04-16T09:43:58;23.37;;;20.83;;
13263;SDS011;6700;51.988;7.646;2023-04-16T09:46:29;21.10;;;19.03;;
13263;SDS011;6700;51.988;7.646;2023-04-16T09:48:57;20.57;;;18.50;;
13263;SDS011;6700;51.988;7.646;2023-04-16T09:51:24;20.27;;;17.87;;
13263;SDS011;6700;51.988;7.646;2023-04-16T09:53:51;19.57;;;17.67;;
13263;SDS011;6700;51.988;7.646;2023-04-16T09:56:22;22.50;;;18.83;;
13263;SDS011;6700;51.988;7.646;2023-04-16T09:58:55;20.63;;;18.63;;
13263;SDS011;6700;51.988;7.646;2023-04-16T10:01:23;21.10;;;19.00;;
13263;SDS011;6700;51.988;7.646;2023-04-16T10:03:52;20.50;;;18.37;;
13263;SDS011;6700;51.988;7.646;2023-04-16T10:06:21;20.40;;;18.40;;
13263;SDS011;6700;51.988;7.646;2023-04-16T10:08:51;19.03;;;17.23;;
13263;SDS011;6700;51.988;7.646;2023-04-16T10:11:19;19.00;;;17.10;;
13263;SDS011;6700;51.988;7.646;2023-04-16T10:13:47;18.03;;;16.13;;
13263;SDS011;6700;51.988;7.646;2023-04-16T10:16:14;18.07;;;16.17;;
13263;SDS011;6700;51.988;7.646;2023-04-16T10:18:43;17.77;;;15.97;;
13263;SDS011;6700;51.988;7.646;2023-04-16T10:21:10;16.23;;;14.60;;
13263;SDS011;6700;51.988;7.646;2023-04-16T10:23:38;17.10;;;14.97;;
13263;SDS011;6700;51.988;7.646;2023-04-16T10:26:06;15.60;;;14.00;;
13263;SDS011;6700;51.988;7.646;2023-04-16T10:28:33;15.53;;;14.03;;
13263;SDS011;6700;51.988;7.646;2023-04-16T10:31:02;15.93;;;14.27;;
13263;SDS011;6700;51.988;7.646;2023-04-16T10:33:38;15.03;;;13.40;;
13263;SDS011;6700;51.988;7.646;2023-04-16T10:36:09;14.77;;;13.37;;
13263;SDS011;6700;51.988;7.646;2023-04-16T10:38:37;14.60;;;13.23;;
13263;SDS011;6700;51.988;7.646;2023-04-16T10:41:05;15.47;;;12.13;;
13263;SDS011;6700;51.988;7.646;2023-04-16T10:43:38;15.43;;;12.60;;
13263;SDS011;6700;51.988;7.646;2023-04-16T10:48:49;13.10;;;11.80;;
13263;SDS011;6700;51.988;7.646;2023-04-16T10:53:50;16.00;;;13.27;;
13263;SDS011;6700;51.988;7.646;2023-04-16T10:56:24;14.90;;;13.33;;
13263;SDS011;6700;51.988;7.646;2023-04-16T10:58:54;13.67;;;11.47;;
13263;SDS011;6700;51.988;7.646;2023-04-16T11:01:31;14.20;;;12.70;;
13263;SDS011;6700;51.988;7.646;2023-04-16T11:03:59;16.03;;;12.77;;
13263;SDS011;6700;51.988;7.646;2023-04-16T11:06:28;14.27;;;12.13;;
13263;SDS011;6700;51.988;7.646;2023-04-16T11:08:57;12.73;;;11.53;;
13263;SDS011;6700;51.988;7.646;2023-04-16T11:11:24;11.27;;;10.27;;
13263;SDS011;6700;51.988;7.646;2023-04-16T11:13:53;11.87;;;10.67;;
13263;SDS011;6700;51.988;7.646;2023-04-16T11:16:21;12.17;;;10.93;;
13263;SDS011;6700;51.988;7.646;2023-04-16T11:18:48;11.97;;;10.73;;
13263;SDS011;6700;51.988;7.646;2023-04-16T11:21:17;12.03;;;10.83;;
13263;SDS011;6700;51.988;7.646;2023-04-16T11:23:46;13.63;;;12.00;;
13263;SDS011;6700;51.988;7.646;2023-04-16T11:29:13;11.97;;;10.77;;
13263;SDS011;6700;51.988;7.646;2023-04-16T11:31:40;12.50;;;10.83;;
13263;SDS011;6700;51.988;7.646;2023-04-16T11:34:08;12.50;;;11.23;;
13263;SDS011;6700;51.988;7.646;2023-04-16T11:36:41;12.97;;;11.30;;
13263;SDS011;6700;51.988;7.646;2023-04-16T11:39:09;12.30;;;10.97;;
13263;SDS011;6700;51.988;7.646;2023-04-16T11:42:10;12.60;;;11.07;;
13263;SDS011;6700;51.988;7.646;2023-04-16T11:44:29;12.87;;;10.97;;
13263;SDS011;6700;51.988;7.646;2023-04-16T11:46:56;11.90;;;10.70;;
13263;SDS011;6700;51.988;7.646;2023-04-16T11:49:27;10.33;;;9.33;;
13263;SDS011;6700;51.988;7.646;2023-04-16T11:51:54;11.50;;;10.30;;
13263;SDS011;6700;51.988;7.646;2023-04-16T11:54:22;10.47;;;9.57;;
13263;SDS011;6700;51.988;7.646;2023-04-16T11:56:50;12.17;;;10.97;;
13263;SDS011;6700;51.988;7.646;2023-04-16T11:59:21;11.57;;;10.37;;
13263;SDS011;6700;51.988;7.646;2023-04-16T12:01:49;12.03;;;10.90;;
13263;SDS011;6700;51.988;7.646;2023-04-16T12:04:20;13.77;;;11.47;;
13263;SDS011;6700;51.988;7.646;2023-04-16T12:07:09;12.53;;;11.33;;
13263;SDS011;6700;51.988;7.646;2023-04-16T12:09:38;12.90;;;11.60;;
13263;SDS011;6700;51.988;7.646;2023-04-16T12:12:23;11.97;;;10.73;;
13263;SDS011;6700;51.988;7.646;2023-04-16T12:14:51;13.17;;;11.93;;
13263;SDS011;6700;51.988;7.646;2023-04-16T12:17:19;14.30;;;11.47;;
13263;SDS011;6700;51.988;7.646;2023-04-16T12:19:47;14.43;;;12.70;;
13263;SDS011;6700;51.988;7.646;2023-04-16T12:22:15;14.47;;;13.07;;
13263;SDS011;6700;51.988;7.646;2023-04-16T12:24:42;14.83;;;13.33;;
13263;SDS011;6700;51.988;7.646;2023-04-16T12:27:09;15.50;;;14.00;;
13263;SDS011;6700;51.988;7.646;2023-04-16T12:29:36;15.93;;;14.33;;
13263;SDS011;6700;51.988;7.646;2023-04-16T12:32:03;17.50;;;14.23;;
13263;SDS011;6700;51.988;7.646;2023-04-16T12:34:31;14.90;;;13.40;;
13263;SDS011;6700;51.988;7.646;2023-04-16T12:37:14;15.00;;;13.03;;
13263;SDS011;6700;51.988;7.646;2023-04-16T12:39:41;17.60;;;14.03;;
13263;SDS011;6700;51.988;7.646;2023-04-16T12:42:08;15.93;;;14.33;;
13263;SDS011;6700;51.988;7.646;2023-04-16T12:44:37;19.43;;;14.23;;
13263;SDS011;6700;51.988;7.646;2023-04-16T12:47:04;15.53;;;14.07;;
13263;SDS011;6700;51.988;7.646;2023-04-16T12:49:32;15.90;;;14.23;;
13263;SDS011;6700;51.988;7.646;2023-04-16T12:51:59;15.40;;;13.90;;
13263;SDS011;6700;51.988;7.646;2023-04-16T12:54:26;15.57;;;13.50;;
13263;SDS011;6700;51.988;7.646;2023-04-16T12:56:56;15.67;;;13.93;;
13263;SDS011;6700;51.988;7.646;2023-04-16T12:59:23;15.40;;;13.93;;
13263;SDS011;6700;51.988;7.646;2023-04-16T13:01:50;16.83;;;14.17;;
13263;SDS011;6700;51.988;7.646;2023-04-16T13:04:17;15.50;;;14.07;;
13263;SDS011;6700;51.988;7.646;2023-04-16T13:06:44;16.10;;;14.40;;
13263;SDS011;6700;51.988;7.646;2023-04-16T13:09:12;17.67;;;14.73;;
13263;SDS011;6700;51.988;7.646;2023-04-16T13:11:39;16.90;;;15.07;;
13263;SDS011;6700;51.988;7.646;2023-04-16T13:14:07;16.50;;;14.90;;
13263;SDS011;6700;51.988;7.646;2023-04-16T13:16:34;18.23;;;14.70;;
13263;SDS011;6700;51.988;7.646;2023-04-16T13:19:01;17.60;;;15.63;;
13263;SDS011;6700;51.988;7.646;2023-04-16T13:21:28;16.83;;;15.13;;
13263;SDS011;6700;51.988;7.646;2023-04-16T13:23:56;17.93;;;14.40;;
13263;SDS011;6700;51.988;7.646;2023-04-16T13:26:23;16.73;;;14.83;;
13263;SDS011;6700;51.988;7.646;2023-04-16T13:28:50;15.57;;;13.57;;
13263;SDS011;6700;51.988;7.646;2023-04-16T13:31:17;15.13;;;13.37;;
13263;SDS011;6700;51.988;7.646;2023-04-16T13:33:47;15.13;;;13.57;;
13263;SDS011;6700;51.988;7.646;2023-04-16T13:36:14;14.80;;;13.07;;
13263;SDS011;6700;51.988;7.646;2023-04-16T13:38:41;17.03;;;14.13;;
13263;SDS011;6700;51.988;7.646;2023-04-16T13:41:08;16.47;;;12.73;;
13263;SDS011;6700;51.988;7.646;2023-04-16T13:43:35;15.17;;;13.67;;
13263;SDS011;6700;51.988;7.646;2023-04-16T13:46:03;14.87;;;13.30;;
13263;SDS011;6700;51.988;7.646;2023-04-16T13:48:30;15.63;;;13.53;;
13263;SDS011;6700;51.988;7.646;2023-04-16T13:50:57;16.77;;;13.27;;
13263;SDS011;6700;51.988;7.646;2023-04-16T13:53:24;15.17;;;13.67;;
13263;SDS011;6700;51.988;7.646;2023-04-16T13:55:51;15.67;;;13.93;;
13263;SDS011;6700;51.988;7.646;2023-04-16T13:58:19;15.03;;;13.40;;
13263;SDS011;6700;51.988;7.646;2023-04-16T14:00:46;15.40;;;13.80;;
13263;SDS011;6700;51.988;7.646;2023-04-16T14:03:13;15.80;;;14.10;;
13263;SDS011;6700;51.988;7.646;2023-04-16T14:05:41;15.57;;;13.97;;
13263;SDS011;6700;51.988;7.646;2023-04-16T14:08:08;15.73;;;13.57;;
13263;SDS011;6700;51.988;7.646;2023-04-16T14:10:35;14.47;;;12.43;;
13263;SDS011;6700;51.988;7.646;2023-04-16T14:13:02;14.93;;;13.27;;
13263;SDS011;6700;51.988;7.646;2023-04-16T14:15:29;15.33;;;13.10;;
13263;SDS011;6700;51.988;7.646;2023-04-16T14:17:56;15.83;;;14.23;;
13263;SDS011;6700;51.988;7.646;2023-04-16T14:20:23;14.80;;;13.17;;
13263;SDS011;6700;51.988;7.646;2023-04-16T14:22:51;14.90;;;13.13;;
13263;SDS011;6700;51.988;7.646;2023-04-16T14:25:18;14.10;;;12.50;;
13263;SDS011;6700;51.988;7.646;2023-04-16T14:27:45;14.40;;;11.93;;
13263;SDS011;6700;51.988;7.646;2023-04-16T14:30:12;14.63;;;12.83;;
13263;SDS011;6700;51.988;7.646;2023-04-16T14:32:39;13.43;;;11.90;;
13263;SDS011;6700;51.988;7.646;2023-04-16T14:35:06;14.93;;;13.00;;
13263;SDS011;6700;51.988;7.646;2023-04-16T14:37:33;16.47;;;13.00;;
13263;SDS011;6700;51.988;7.646;2023-04-16T14:40:02;15.17;;;13.60;;
13263;SDS011;6700;51.988;7.646;2023-04-16T14:42:33;13.30;;;11.90;;
13263;SDS011;6700;51.988;7.646;2023-04-16T14:45:01;15.83;;;12.23;;
13263;SDS011;6700;51.988;7.646;2023-04-16T14:47:34;13.27;;;11.93;;
13263;SDS011;6700;51.988;7.646;2023-04-16T14:50:02;14.80;;;13.03;;